You are listening to:
KJXN Del/Gnd/Twr/App - Jackson, Michigan, United States

KJXN 230456Z AUTO 29006KT 10SM CLR M02/M06 A3017 RMK AO2 SLP226 T10171056 400671017

If stream does not start automatically press the play button